Time;durP1;ratioP1;P1;durP2;ratioP2;P2;SDS_P1;SDS_P2;PMS_P1;PMS_P2;Temp;Humidity;BMP_temperature;BMP_pressure;BME280_temperature;BME280_humidity;BME280_pressure;Samples;Min_cycle;Max_cycle;Signal;HPM_P1;HPM_P2
2023/02/22 00:00:18;;;;;;;292.07;53.67;;;;;;;;;;5042958;28;20029;-75
2023/02/22 00:02:44;;;;;;;367.13;52.87;;;;;;;;;;5058024;28;20048;-76
2023/02/22 00:05:10;;;;;;;384.53;56.30;;;;;;;;;;5045194;28;20071;-76
2023/02/22 00:07:36;;;;;;;195.00;42.87;;;;;;;;;;5042936;28;20347;-76
2023/02/22 00:10:02;;;;;;;197.93;44.80;;;;;;;;;;5045405;28;20102;-76
2023/02/22 00:12:30;;;;;;;277.30;45.73;;;;;;;;;;5048079;28;20036;-76
2023/02/22 00:14:56;;;;;;;249.27;48.03;;;;;;;;;;5062659;28;20029;-77
2023/02/22 00:17:22;;;;;;;184.23;46.70;;;;;;;;;;5058728;28;20123;-77
2023/02/22 00:19:53;;;;;;;150.77;45.43;;;;;;;;;;5041624;28;20103;-75
2023/02/22 00:22:19;;;;;;;145.20;44.13;;;;;;;;;;5058370;28;20024;-76
2023/02/22 00:24:49;;;;;;;184.30;46.43;;;;;;;;;;5050411;28;20028;-76
2023/02/22 00:27:15;;;;;;;200.90;45.60;;;;;;;;;;5058143;28;21761;-76
2023/02/22 00:29:45;;;;;;;347.07;51.47;;;;;;;;;;5046304;28;20807;-76
2023/02/22 00:32:11;;;;;;;260.07;47.17;;;;;;;;;;5039334;28;20033;-75
2023/02/22 00:34:37;;;;;;;361.20;50.33;;;;;;;;;;5047046;28;20030;-76
2023/02/22 00:37:03;;;;;;;349.43;52.17;;;;;;;;;;5049261;28;20037;-76
2023/02/22 00:39:30;;;;;;;159.20;44.07;;;;;;;;;;5039658;28;20040;-76
2023/02/22 00:41:56;;;;;;;356.73;52.67;;;;;;;;;;5049469;28;20028;-76
2023/02/22 00:44:22;;;;;;;413.03;53.00;;;;;;;;;;5046823;28;20052;-75
2023/02/22 00:46:48;;;;;;;569.80;69.73;;;;;;;;;;5048684;28;20021;-76
2023/02/22 00:49:15;;;;;;;469.03;60.13;;;;;;;;;;5027764;28;20051;-76
2023/02/22 00:51:41;;;;;;;376.53;56.43;;;;;;;;;;5051245;28;20037;-76
2023/02/22 00:54:07;;;;;;;235.70;50.63;;;;;;;;;;5044014;28;20231;-77
2023/02/22 00:56:34;;;;;;;192.93;46.30;;;;;;;;;;5046550;28;20366;-75
2023/02/22 00:59:02;;;;;;;194.30;43.50;;;;;;;;;;5048098;28;20036;-78
2023/02/22 01:01:28;;;;;;;187.70;42.23;;;;;;;;;;5040514;28;20094;-76
2023/02/22 01:03:54;;;;;;;194.67;41.13;;;;;;;;;;5057308;28;20111;-76
2023/02/22 01:06:21;;;;;;;292.93;45.53;;;;;;;;;;5041198;28;20044;-75
2023/02/22 01:08:48;;;;;;;124.07;35.43;;;;;;;;;;5058255;28;20024;-76
2023/02/22 01:11:16;;;;;;;139.43;36.33;;;;;;;;;;5058687;28;20032;-75
2023/02/22 01:13:44;;;;;;;173.07;37.67;;;;;;;;;;5041366;28;20170;-76
2023/02/22 01:16:10;;;;;;;119.33;37.97;;;;;;;;;;5046049;28;20535;-76
2023/02/22 01:18:36;;;;;;;182.63;36.93;;;;;;;;;;5039944;28;21730;-76
2023/02/22 01:21:09;;;;;;;193.37;40.63;;;;;;;;;;5058771;28;20116;-76
2023/02/22 01:23:35;;;;;;;239.13;40.47;;;;;;;;;;5047982;28;20112;-76
2023/02/22 01:26:03;;;;;;;261.03;46.83;;;;;;;;;;5041042;28;20056;-76
2023/02/22 01:28:29;;;;;;;356.77;50.07;;;;;;;;;;5056298;28;20025;-77
2023/02/22 01:30:55;;;;;;;118.23;35.13;;;;;;;;;;5058969;28;20059;-76
2023/02/22 01:33:21;;;;;;;133.87;34.20;;;;;;;;;;5047721;28;20839;-76
2023/02/22 01:35:48;;;;;;;156.47;38.83;;;;;;;;;;5056975;28;20029;-76
2023/02/22 01:38:14;;;;;;;171.33;37.20;;;;;;;;;;5058331;28;20025;-76
2023/02/22 01:40:41;;;;;;;126.70;38.40;;;;;;;;;;5055949;28;20104;-76
2023/02/22 01:43:18;;;;;;;139.83;37.83;;;;;;;;;;5040223;28;20043;-76
2023/02/22 01:45:47;;;;;;;182.03;44.90;;;;;;;;;;5058347;28;20119;-76
2023/02/22 01:48:20;;;;;;;242.80;44.70;;;;;;;;;;5057453;28;21658;-75
2023/02/22 01:50:57;;;;;;;167.67;42.67;;;;;;;;;;5058844;28;20107;-75
2023/02/22 01:53:26;;;;;;;224.27;44.57;;;;;;;;;;5043623;28;20090;-76
2023/02/22 01:55:52;;;;;;;264.93;45.97;;;;;;;;;;5058040;28;20029;-76
2023/02/22 01:58:19;;;;;;;180.60;40.97;;;;;;;;;;5049075;28;20029;-75
2023/02/22 02:00:45;;;;;;;220.40;45.00;;;;;;;;;;5043697;28;20588;-77
2023/02/22 02:03:16;;;;;;;180.47;42.13;;;;;;;;;;5058579;28;20094;-78
2023/02/22 02:05:42;;;;;;;279.30;51.73;;;;;;;;;;5057929;28;20078;-75
2023/02/22 02:08:16;;;;;;;398.33;53.87;;;;;;;;;;5058414;28;20041;-75
2023/02/22 02:10:46;;;;;;;248.43;48.00;;;;;;;;;;5057654;28;20036;-75
2023/02/22 02:13:11;;;;;;;248.43;49.40;;;;;;;;;;5056358;28;20477;-75
2023/02/22 02:15:40;;;;;;;269.57;50.43;;;;;;;;;;5048323;28;20119;-75
2023/02/22 02:18:08;;;;;;;294.17;52.47;;;;;;;;;;5039742;28;20124;-75
2023/02/22 02:20:37;;;;;;;302.63;54.20;;;;;;;;;;5039301;28;20024;-75
2023/02/22 02:23:05;;;;;;;236.97;48.57;;;;;;;;;;5056339;28;20032;-76
2023/02/22 02:25:39;;;;;;;188.13;48.70;;;;;;;;;;5056769;28;20025;-75
2023/02/22 02:28:24;;;;;;;330.43;54.07;;;;;;;;;;5058388;28;20132;-76
2023/02/22 02:31:06;;;;;;;281.97;50.00;;;;;;;;;;5038269;28;20607;-75
2023/02/22 02:33:52;;;;;;;183.80;46.27;;;;;;;;;;5054300;28;20086;-75
2023/02/22 02:36:22;;;;;;;225.23;46.70;;;;;;;;;;5046609;28;20040;-75
2023/02/22 02:38:57;;;;;;;330.10;52.40;;;;;;;;;;5056662;28;20024;-75
2023/02/22 02:41:23;;;;;;;195.53;48.17;;;;;;;;;;5044622;28;20025;-75
2023/02/22 02:43:59;;;;;;;164.90;45.77;;;;;;;;;;5050061;28;20468;-75
2023/02/22 02:46:29;;;;;;;236.50;47.07;;;;;;;;;;5075525;28;20099;-75
2023/02/22 02:48:58;;;;;;;220.53;47.90;;;;;;;;;;5054528;28;20040;-76
2023/02/22 02:51:27;;;;;;;166.40;43.03;;;;;;;;;;5057123;28;20089;-76
2023/02/22 02:53:54;;;;;;;182.73;46.90;;;;;;;;;;5056749;28;20031;-76
2023/02/22 02:56:22;;;;;;;162.37;46.13;;;;;;;;;;5057091;28;20029;-75
2023/02/22 02:58:52;;;;;;;242.77;49.00;;;;;;;;;;5053252;28;20386;-75
2023/02/22 03:01:27;;;;;;;224.37;44.53;;;;;;;;;;5073444;28;20028;-76
2023/02/22 03:04:03;;;;;;;243.00;46.33;;;;;;;;;;5064813;28;20025;-76
2023/02/22 03:06:47;;;;;;;290.87;48.77;;;;;;;;;;5051903;28;20048;-76
2023/02/22 03:09:13;;;;;;;173.70;43.50;;;;;;;;;;5060443;28;20029;-76
2023/02/22 03:12:00;;;;;;;290.27;51.33;;;;;;;;;;5052195;28;20319;-76
2023/02/22 03:14:29;;;;;;;257.30;46.80;;;;;;;;;;5057024;28;20123;-76
2023/02/22 03:16:55;;;;;;;146.97;44.97;;;;;;;;;;5072365;28;20079;-76
2023/02/22 03:19:27;;;;;;;223.53;49.90;;;;;;;;;;5059929;28;20029;-76
2023/02/22 03:22:01;;;;;;;177.63;44.97;;;;;;;;;;5069835;28;20338;-76
2023/02/22 03:24:30;;;;;;;174.83;47.17;;;;;;;;;;5054403;28;20024;-76
2023/02/22 03:27:02;;;;;;;204.13;46.77;;;;;;;;;;5072335;28;20098;-76
2023/02/22 03:29:34;;;;;;;180.38;44.83;;;;;;;;;;5056429;28;20025;-75
2023/02/22 03:32:01;;;;;;;150.57;43.37;;;;;;;;;;5047559;28;20497;-75
2023/02/22 03:34:31;;;;;;;153.97;44.97;;;;;;;;;;5052901;28;20029;-76
2023/02/22 03:37:01;;;;;;;188.43;44.93;;;;;;;;;;5050184;28;20434;-75
2023/02/22 03:39:31;;;;;;;263.10;47.40;;;;;;;;;;5074614;28;20064;-76
2023/02/22 03:42:08;;;;;;;153.60;43.60;;;;;;;;;;5059010;28;20025;-76
2023/02/22 03:44:36;;;;;;;223.63;46.13;;;;;;;;;;5054466;28;20024;-75
2023/02/22 03:47:05;;;;;;;141.13;40.10;;;;;;;;;;5049228;28;20027;-76
2023/02/22 03:52:29;;;;;;;178.13;44.10;;;;;;;;;;5080598;28;20048;-75
2023/02/22 03:54:55;;;;;;;220.17;48.17;;;;;;;;;;5072187;28;20068;-76
2023/02/22 03:57:32;;;;;;;183.43;46.03;;;;;;;;;;5050181;28;20064;-76
2023/02/22 04:00:21;;;;;;;190.83;46.30;;;;;;;;;;5072629;28;20044;-76
2023/02/22 04:03:03;;;;;;;124.27;43.83;;;;;;;;;;5079615;28;20013;-75
2023/02/22 04:05:29;;;;;;;172.23;44.22;;;;;;;;;;5062594;28;20055;-76
2023/02/22 04:07:56;;;;;;;159.53;43.37;;;;;;;;;;5061377;28;20036;-76
2023/02/22 04:10:22;;;;;;;161.27;41.37;;;;;;;;;;5045566;28;20027;-76
2023/02/22 04:12:49;;;;;;;136.60;42.73;;;;;;;;;;5057936;28;20457;-75
2023/02/22 04:15:17;;;;;;;127.47;42.13;;;;;;;;;;5062046;28;20112;-76
2023/02/22 04:17:43;;;;;;;311.37;51.27;;;;;;;;;;5057234;28;20032;-75
2023/02/22 04:20:12;;;;;;;128.90;43.33;;;;;;;;;;5062701;28;20521;-76
2023/02/22 04:22:38;;;;;;;155.53;43.83;;;;;;;;;;5051618;28;20040;-76
2023/02/22 04:25:04;;;;;;;143.23;45.40;;;;;;;;;;5048208;28;20056;-75
2023/02/22 04:27:30;;;;;;;141.33;45.10;;;;;;;;;;5044298;28;20025;-75
2023/02/22 04:29:56;;;;;;;153.37;45.47;;;;;;;;;;5048410;28;20044;-75
2023/02/22 04:32:22;;;;;;;124.50;43.77;;;;;;;;;;5060280;28;20039;-76
2023/02/22 04:34:48;;;;;;;114.50;41.90;;;;;;;;;;5058955;28;20028;-76
2023/02/22 04:37:14;;;;;;;112.63;39.07;;;;;;;;;;5059453;28;20107;-75
2023/02/22 04:39:40;;;;;;;118.47;39.70;;;;;;;;;;5047400;28;21654;-75
2023/02/22 04:42:08;;;;;;;120.73;40.77;;;;;;;;;;5057755;28;20029;-76
2023/02/22 04:44:34;;;;;;;112.23;39.70;;;;;;;;;;5042881;28;20108;-75
2023/02/22 04:47:02;;;;;;;119.67;40.80;;;;;;;;;;5061013;28;20079;-75
2023/02/22 04:49:28;;;;;;;108.97;39.43;;;;;;;;;;5061235;28;20037;-75
2023/02/22 04:51:54;;;;;;;108.33;41.43;;;;;;;;;;5058470;28;20468;-75
2023/02/22 04:54:20;;;;;;;96.03;41.70;;;;;;;;;;5042223;28;20066;-75
2023/02/22 04:56:46;;;;;;;117.77;41.57;;;;;;;;;;5059561;28;20059;-75
2023/02/22 04:59:12;;;;;;;106.83;39.30;;;;;;;;;;5042285;28;20111;-75
2023/02/22 05:01:38;;;;;;;107.53;40.67;;;;;;;;;;5057738;28;20032;-76
2023/02/22 05:04:05;;;;;;;93.37;38.27;;;;;;;;;;5059932;28;20028;-77
2023/02/22 05:06:31;;;;;;;94.07;42.57;;;;;;;;;;5056336;28;20119;-75
2023/02/22 05:08:57;;;;;;;92.27;38.30;;;;;;;;;;5058004;28;20127;-76
2023/02/22 05:11:23;;;;;;;93.93;39.30;;;;;;;;;;5042942;28;20045;-75
2023/02/22 05:13:49;;;;;;;84.47;36.50;;;;;;;;;;5059012;28;20472;-76
2023/02/22 05:16:15;;;;;;;86.77;36.83;;;;;;;;;;5041750;28;20040;-75
2023/02/22 05:18:44;;;;;;;86.10;37.27;;;;;;;;;;5060809;28;20028;-75
2023/02/22 05:21:10;;;;;;;85.30;37.93;;;;;;;;;;5052631;28;20025;-76
2023/02/22 05:23:36;;;;;;;86.77;36.60;;;;;;;;;;5058076;28;20021;-76
2023/02/22 05:26:05;;;;;;;88.47;37.57;;;;;;;;;;5058174;28;20458;-76
2023/02/22 05:28:31;;;;;;;91.53;37.33;;;;;;;;;;5058099;28;20036;-75
2023/02/22 05:30:59;;;;;;;91.87;37.53;;;;;;;;;;5044574;28;20051;-76
2023/02/22 05:33:28;;;;;;;86.83;37.03;;;;;;;;;;5060795;28;20032;-76
2023/02/22 05:35:56;;;;;;;92.37;37.77;;;;;;;;;;5044199;28;20032;-74
2023/02/22 05:38:22;;;;;;;88.17;37.50;;;;;;;;;;5059380;28;20165;-75
2023/02/22 05:40:48;;;;;;;95.20;38.70;;;;;;;;;;5059342;28;20033;-76
2023/02/22 05:43:17;;;;;;;85.67;36.57;;;;;;;;;;5059670;28;20534;-76
2023/02/22 05:45:45;;;;;;;77.53;34.57;;;;;;;;;;5049350;28;20033;-75
2023/02/22 05:48:13;;;;;;;72.43;32.10;;;;;;;;;;5058317;28;20331;-75
2023/02/22 05:50:39;;;;;;;70.63;32.77;;;;;;;;;;5058261;28;20025;-76
2023/02/22 05:53:06;;;;;;;74.40;33.37;;;;;;;;;;5057952;28;20515;-75
2023/02/22 05:55:32;;;;;;;77.60;34.60;;;;;;;;;;5057501;28;20104;-76
2023/02/22 05:57:58;;;;;;;77.30;32.20;;;;;;;;;;5040539;28;20541;-75
2023/02/22 06:00:30;;;;;;;87.63;34.27;;;;;;;;;;5038758;28;20025;-76
2023/02/22 06:03:03;;;;;;;90.43;36.85;;;;;;;;;;5045127;28;20033;-75
2023/02/22 06:05:29;;;;;;;88.55;35.92;;;;;;;;;;5044094;28;20028;-75
2023/02/22 06:07:56;;;;;;;94.67;35.77;;;;;;;;;;5057974;28;20028;-76
2023/02/22 06:10:22;;;;;;;87.10;35.00;;;;;;;;;;5040145;28;20109;-75
2023/02/22 06:12:49;;;;;;;89.23;34.80;;;;;;;;;;5045259;28;20029;-75
2023/02/22 06:15:15;;;;;;;90.33;35.90;;;;;;;;;;5057698;28;20059;-75
2023/02/22 06:17:42;;;;;;;84.93;35.30;;;;;;;;;;5046265;28;20044;-75
2023/02/22 06:20:09;;;;;;;78.00;33.57;;;;;;;;;;5045766;28;20048;-75
2023/02/22 06:22:35;;;;;;;93.40;36.03;;;;;;;;;;5056869;28;20040;-75
2023/02/22 06:25:05;;;;;;;90.70;35.70;;;;;;;;;;5043885;28;20029;-75
2023/02/22 06:27:31;;;;;;;91.43;34.13;;;;;;;;;;5055468;28;20036;-77
2023/02/22 06:29:57;;;;;;;90.87;33.43;;;;;;;;;;5041890;28;20025;-74
2023/02/22 06:32:23;;;;;;;83.17;32.53;;;;;;;;;;5056399;28;20060;-75
2023/02/22 06:34:49;;;;;;;91.87;34.57;;;;;;;;;;5047586;28;20067;-76
2023/02/22 06:37:15;;;;;;;95.40;38.77;;;;;;;;;;5038604;28;20025;-75
2023/02/22 06:39:41;;;;;;;90.20;37.93;;;;;;;;;;5044059;28;20078;-75
2023/02/22 06:42:07;;;;;;;90.23;36.47;;;;;;;;;;5042335;28;20032;-75
2023/02/22 06:44:33;;;;;;;91.80;35.27;;;;;;;;;;5042233;28;20033;-75
2023/02/22 06:46:59;;;;;;;89.83;34.33;;;;;;;;;;5043147;28;20456;-75
2023/02/22 06:49:26;;;;;;;93.60;37.90;;;;;;;;;;5055550;28;20488;-75
2023/02/22 06:51:52;;;;;;;83.03;34.77;;;;;;;;;;5048018;28;20041;-75
2023/02/22 06:54:18;;;;;;;94.47;37.50;;;;;;;;;;5056968;28;20033;-76
2023/02/22 06:56:44;;;;;;;90.83;36.13;;;;;;;;;;5059550;28;20098;-75
2023/02/22 06:59:10;;;;;;;89.43;36.87;;;;;;;;;;5055663;28;20841;-74
2023/02/22 07:01:36;;;;;;;86.37;34.63;;;;;;;;;;5041040;28;20052;-75
2023/02/22 07:04:04;;;;;;;79.50;32.83;;;;;;;;;;5038453;28;20072;-77
2023/02/22 07:06:30;;;;;;;82.70;32.30;;;;;;;;;;5058716;28;20488;-75
2023/02/22 07:08:58;;;;;;;78.80;34.17;;;;;;;;;;5057581;28;20032;-75
2023/02/22 07:11:24;;;;;;;80.17;34.47;;;;;;;;;;5039367;28;20028;-75
2023/02/22 07:13:50;;;;;;;82.70;33.33;;;;;;;;;;5041721;28;20035;-75
2023/02/22 07:16:16;;;;;;;88.60;33.53;;;;;;;;;;5041171;28;20033;-76
2023/02/22 07:18:42;;;;;;;75.90;32.87;;;;;;;;;;5056556;28;20036;-75
2023/02/22 07:21:08;;;;;;;73.37;32.90;;;;;;;;;;5042232;28;20107;-75
2023/02/22 07:23:34;;;;;;;68.27;31.17;;;;;;;;;;5046198;28;20041;-75
2023/02/22 07:26:04;;;;;;;72.37;32.90;;;;;;;;;;5060542;28;20064;-75
2023/02/22 07:28:30;;;;;;;65.30;30.27;;;;;;;;;;5060590;28;20033;-75
2023/02/22 07:30:56;;;;;;;63.93;30.90;;;;;;;;;;5059476;28;20115;-75
2023/02/22 07:33:25;;;;;;;60.10;29.43;;;;;;;;;;5059979;28;20068;-75
2023/02/22 07:35:51;;;;;;;56.77;28.33;;;;;;;;;;5044913;28;20099;-76
2023/02/22 07:38:19;;;;;;;62.37;31.23;;;;;;;;;;5058430;28;20343;-75
2023/02/22 07:40:47;;;;;;;57.90;28.87;;;;;;;;;;5060276;28;20029;-76
2023/02/22 07:43:15;;;;;;;58.83;28.30;;;;;;;;;;5060760;28;20527;-75
2023/02/22 07:45:41;;;;;;;47.97;25.60;;;;;;;;;;5058873;28;20036;-74
2023/02/22 07:48:08;;;;;;;53.77;26.87;;;;;;;;;;5061824;28;21954;-76
2023/02/22 07:50:34;;;;;;;50.47;25.93;;;;;;;;;;5047107;28;20033;-76
2023/02/22 07:53:01;;;;;;;45.40;24.33;;;;;;;;;;5051231;28;20029;-75
2023/02/22 07:55:29;;;;;;;40.23;23.13;;;;;;;;;;5061292;28;20051;-76
2023/02/22 07:57:56;;;;;;;45.20;24.47;;;;;;;;;;5046191;28;20086;-76
2023/02/22 08:00:24;;;;;;;48.77;24.27;;;;;;;;;;5061480;28;20093;-76
2023/02/22 08:02:50;;;;;;;39.47;21.43;;;;;;;;;;5059517;28;20044;-75
2023/02/22 08:05:16;;;;;;;37.00;21.00;;;;;;;;;;5047098;28;20028;-76
2023/02/22 08:07:44;;;;;;;36.20;20.30;;;;;;;;;;5043278;28;20342;-75
2023/02/22 08:10:13;;;;;;;39.27;20.07;;;;;;;;;;5042291;28;20025;-76
2023/02/22 08:12:39;;;;;;;34.93;20.03;;;;;;;;;;5051819;28;20025;-76
2023/02/22 08:15:06;;;;;;;35.93;20.83;;;;;;;;;;5060828;28;20029;-76
2023/02/22 08:17:32;;;;;;;36.47;20.33;;;;;;;;;;5044823;28;20226;-76
2023/02/22 08:19:58;;;;;;;34.50;19.30;;;;;;;;;;5062477;28;20094;-75
2023/02/22 08:22:26;;;;;;;33.30;18.83;;;;;;;;;;5041646;28;20050;-76
2023/02/22 08:24:53;;;;;;;34.93;18.73;;;;;;;;;;5062197;28;20035;-75
2023/02/22 08:27:24;;;;;;;35.63;18.20;;;;;;;;;;5061440;28;20035;-75
2023/02/22 08:29:50;;;;;;;36.47;17.97;;;;;;;;;;5043163;28;20110;-75
2023/02/22 08:32:18;;;;;;;36.63;18.50;;;;;;;;;;5041227;28;20084;-75
2023/02/22 08:34:44;;;;;;;33.20;18.80;;;;;;;;;;5061390;28;20111;-77
2023/02/22 08:37:10;;;;;;;33.73;19.07;;;;;;;;;;5042858;28;20475;-75
2023/02/22 08:39:36;;;;;;;30.90;17.83;;;;;;;;;;5040464;28;20145;-74
2023/02/22 08:42:02;;;;;;;34.43;19.97;;;;;;;;;;5042091;28;20112;-76
2023/02/22 08:44:28;;;;;;;32.93;17.60;;;;;;;;;;5053411;28;20047;-75
2023/02/22 08:46:54;;;;;;;27.17;16.93;;;;;;;;;;5065144;28;20425;-75
2023/02/22 08:49:20;;;;;;;30.93;18.47;;;;;;;;;;5075694;28;20039;-76
2023/02/22 08:51:46;;;;;;;33.90;18.03;;;;;;;;;;5068040;28;20052;-76
2023/02/22 08:54:13;;;;;;;30.13;17.23;;;;;;;;;;5076776;28;20037;-76
2023/02/22 08:56:38;;;;;;;26.43;16.47;;;;;;;;;;5060775;28;20115;-76
2023/02/22 08:59:07;;;;;;;24.90;17.30;;;;;;;;;;5058673;28;20108;-76
2023/02/22 09:01:33;;;;;;;24.90;15.80;;;;;;;;;;5054324;28;20105;-76
2023/02/22 09:03:59;;;;;;;30.00;17.00;;;;;;;;;;5059576;28;20017;-76
2023/02/22 09:06:26;;;;;;;30.53;17.50;;;;;;;;;;5048493;28;20024;-77
2023/02/22 09:08:51;;;;;;;30.20;17.17;;;;;;;;;;5068915;28;20038;-76
2023/02/22 09:11:17;;;;;;;31.57;17.13;;;;;;;;;;5058278;28;20056;-77
2023/02/22 09:13:43;;;;;;;30.13;16.03;;;;;;;;;;5076538;28;20029;-77
2023/02/22 09:16:09;;;;;;;35.57;17.93;;;;;;;;;;5057845;28;20472;-77
2023/02/22 09:18:35;;;;;;;28.00;17.97;;;;;;;;;;5052973;28;20082;-76
2023/02/22 09:21:03;;;;;;;30.27;17.37;;;;;;;;;;5059642;28;20357;-76
2023/02/22 09:23:29;;;;;;;25.63;16.60;;;;;;;;;;5062298;28;20024;-76
2023/02/22 09:25:57;;;;;;;25.47;16.43;;;;;;;;;;5052319;28;20041;-76
2023/02/22 09:28:23;;;;;;;24.53;14.67;;;;;;;;;;5071096;28;20033;-76
2023/02/22 09:30:49;;;;;;;29.00;16.57;;;;;;;;;;5057981;28;20081;-76
2023/02/22 09:33:17;;;;;;;28.33;15.73;;;;;;;;;;5066882;28;20759;-79
2023/02/22 09:35:46;;;;;;;32.70;16.70;;;;;;;;;;5058148;28;20043;-77
2023/02/22 09:38:14;;;;;;;28.43;16.70;;;;;;;;;;5056730;28;20033;-76
2023/02/22 09:40:43;;;;;;;28.93;17.33;;;;;;;;;;5070607;28;20087;-77
2023/02/22 09:43:13;;;;;;;28.67;16.80;;;;;;;;;;5048278;28;20072;-78
2023/02/22 09:45:39;;;;;;;30.67;18.30;;;;;;;;;;5058443;28;20062;-76
2023/02/22 09:48:07;;;;;;;26.53;17.30;;;;;;;;;;5060342;28;20036;-76
2023/02/22 09:50:42;;;;;;;31.50;18.67;;;;;;;;;;5053821;28;20031;-77
2023/02/22 09:53:28;;;;;;;34.07;15.80;;;;;;;;;;5063283;28;20037;-76
2023/02/22 09:55:56;;;;;;;30.50;17.27;;;;;;;;;;5076149;28;20360;-75
2023/02/22 09:58:24;;;;;;;26.10;15.67;;;;;;;;;;5043537;28;20036;-76
2023/02/22 10:00:52;;;;;;;34.90;17.70;;;;;;;;;;5055804;28;20085;-77
2023/02/22 10:03:18;;;;;;;23.40;15.03;;;;;;;;;;5057068;28;20051;-76
2023/02/22 10:05:48;;;;;;;30.23;16.90;;;;;;;;;;5067334;28;20028;-76
2023/02/22 10:08:17;;;;;;;25.40;15.87;;;;;;;;;;5063746;28;20385;-76
2023/02/22 10:10:51;;;;;;;25.63;16.67;;;;;;;;;;5057273;28;20020;-76
2023/02/22 10:13:53;;;;;;;28.27;16.10;;;;;;;;;;5073554;28;20429;-76
2023/02/22 10:16:28;;;;;;;26.13;16.47;;;;;;;;;;4978405;28;20065;-76
2023/02/22 10:18:55;;;;;;;25.43;16.13;;;;;;;;;;5039136;28;20480;-77
2023/02/22 10:21:24;;;;;;;29.07;17.90;;;;;;;;;;5039383;28;20036;-76
2023/02/22 10:23:50;;;;;;;27.47;15.80;;;;;;;;;;5062173;28;20024;-76
2023/02/22 10:26:19;;;;;;;29.87;16.50;;;;;;;;;;5038746;28;20614;-76
2023/02/22 10:29:04;;;;;;;32.43;16.57;;;;;;;;;;5040912;28;20036;-76
2023/02/22 10:31:32;;;;;;;26.27;14.90;;;;;;;;;;5041169;28;20044;-75
2023/02/22 10:34:00;;;;;;;23.57;15.23;;;;;;;;;;5056425;28;20032;-76
2023/02/22 10:36:29;;;;;;;27.70;14.13;;;;;;;;;;5044152;28;20028;-76
2023/02/22 10:38:59;;;;;;;23.30;14.80;;;;;;;;;;5040950;28;21024;-76
2023/02/22 10:41:32;;;;;;;27.03;15.60;;;;;;;;;;5039758;28;20035;-75
2023/02/22 10:44:01;;;;;;;22.00;14.13;;;;;;;;;;5058212;28;20063;-75
2023/02/22 10:46:28;;;;;;;25.33;15.03;;;;;;;;;;5051929;28;20035;-75
2023/02/22 10:49:01;;;;;;;27.93;15.57;;;;;;;;;;5037786;28;20450;-76
2023/02/22 10:51:27;;;;;;;27.90;15.30;;;;;;;;;;5057818;28;20025;-78
2023/02/22 10:54:09;;;;;;;23.10;14.50;;;;;;;;;;5045717;28;20024;-76
2023/02/22 10:56:46;;;;;;;25.42;14.23;;;;;;;;;;5039561;28;20870;-75
2023/02/22 10:59:25;;;;;;;26.53;13.73;;;;;;;;;;5061302;28;20032;-76
2023/02/22 11:01:54;;;;;;;27.57;17.13;;;;;;;;;;5048965;28;20016;-76
2023/02/22 11:04:21;;;;;;;23.97;14.33;;;;;;;;;;5061582;28;20035;-76
2023/02/22 11:06:49;;;;;;;21.47;13.30;;;;;;;;;;5061097;28;20029;-77
2023/02/22 11:09:22;;;;;;;24.00;13.20;;;;;;;;;;5060700;28;20060;-75
2023/02/22 11:11:50;;;;;;;21.87;13.67;;;;;;;;;;5046224;28;20029;-76
2023/02/22 11:14:29;;;;;;;26.00;13.63;;;;;;;;;;5061047;28;20134;-76
2023/02/22 11:16:57;;;;;;;21.37;12.47;;;;;;;;;;5063538;28;20041;-76
2023/02/22 11:19:25;;;;;;;17.33;11.53;;;;;;;;;;5062280;28;20173;-77
2023/02/22 11:21:53;;;;;;;18.07;12.10;;;;;;;;;;5043609;28;20025;-77
2023/02/22 11:24:22;;;;;;;27.53;14.03;;;;;;;;;;5062671;28;20021;-75
2023/02/22 11:26:50;;;;;;;21.30;12.90;;;;;;;;;;5043074;28;20475;-77
2023/02/22 11:29:20;;;;;;;22.53;12.70;;;;;;;;;;5063011;28;20040;-76
2023/02/22 11:31:48;;;;;;;19.87;12.17;;;;;;;;;;5043769;28;20040;-76
2023/02/22 11:34:37;;;;;;;20.60;11.98;;;;;;;;;;5061667;28;20040;-78
2023/02/22 11:37:28;;;;;;;20.40;11.53;;;;;;;;;;5037590;28;20052;-78
2023/02/22 11:40:18;;;;;;;18.47;11.20;;;;;;;;;;5059572;28;21701;-78
2023/02/22 11:42:44;;;;;;;18.37;11.47;;;;;;;;;;5061520;28;20029;-78
2023/02/22 11:45:13;;;;;;;18.08;11.68;;;;;;;;;;5051990;28;20354;-77
2023/02/22 11:47:48;;;;;;;16.87;10.53;;;;;;;;;;5042458;28;20029;-77
2023/02/22 11:50:30;;;;;;;19.40;11.57;;;;;;;;;;5059612;28;20033;-78
2023/02/22 11:53:00;;;;;;;17.55;11.43;;;;;;;;;;5043155;28;20025;-78
2023/02/22 11:55:26;;;;;;;18.27;10.82;;;;;;;;;;5059790;28;20147;-78
2023/02/22 11:58:04;;;;;;;16.90;10.25;;;;;;;;;;5048229;28;20132;-77
2023/02/22 12:00:42;;;;;;;18.75;10.27;;;;;;;;;;5033052;28;20091;-76
2023/02/22 12:03:17;;;;;;;17.52;10.00;;;;;;;;;;5030934;28;20065;-77
2023/02/22 12:05:43;;;;;;;17.52;9.20;;;;;;;;;;5044739;28;21821;-78
2023/02/22 12:08:08;;;;;;;14.57;9.35;;;;;;;;;;5046671;28;20045;-77
2023/02/22 12:10:41;;;;;;;18.88;9.25;;;;;;;;;;5042217;28;20959;-78
2023/02/22 12:13:09;;;;;;;12.68;7.85;;;;;;;;;;5023170;28;20041;-77
2023/02/22 12:15:42;;;;;;;17.02;9.27;;;;;;;;;;5025533;28;20101;-77
2023/02/22 12:18:17;;;;;;;18.55;8.57;;;;;;;;;;5046693;28;20050;-76
2023/02/22 12:20:43;;;;;;;14.02;9.05;;;;;;;;;;5021121;28;20033;-77
2023/02/22 12:23:11;;;;;;;21.15;11.70;;;;;;;;;;5025618;28;20207;-76
2023/02/22 12:25:41;;;;;;;16.33;8.23;;;;;;;;;;5029905;28;20025;-78
2023/02/22 12:28:10;;;;;;;15.38;7.90;;;;;;;;;;5024602;28;20112;-77
2023/02/22 12:30:38;;;;;;;11.85;7.93;;;;;;;;;;5060036;28;20036;-76
2023/02/22 12:33:08;;;;;;;11.65;7.05;;;;;;;;;;5057984;28;20115;-76
2023/02/22 12:35:36;;;;;;;12.70;7.88;;;;;;;;;;5042642;28;20020;-78
2023/02/22 12:38:05;;;;;;;13.20;7.07;;;;;;;;;;5041814;28;20071;-78
2023/02/22 12:40:34;;;;;;;15.65;7.40;;;;;;;;;;5051165;28;20036;-77
2023/02/22 12:43:16;;;;;;;14.15;7.15;;;;;;;;;;5045471;28;20056;-77
2023/02/22 12:45:49;;;;;;;11.27;7.05;;;;;;;;;;5059821;28;20039;-77
2023/02/22 12:48:33;;;;;;;16.17;7.80;;;;;;;;;;5055783;28;20036;-77
2023/02/22 12:51:06;;;;;;;12.52;7.22;;;;;;;;;;5062308;28;20156;-77
2023/02/22 12:53:37;;;;;;;12.57;7.45;;;;;;;;;;5047849;28;20489;-77
2023/02/22 12:56:21;;;;;;;13.27;7.57;;;;;;;;;;5044962;28;20055;-77
2023/02/22 12:59:01;;;;;;;11.57;7.20;;;;;;;;;;5059009;28;20370;-77
2023/02/22 13:01:34;;;;;;;11.05;6.85;;;;;;;;;;5058659;28;20048;-78
2023/02/22 13:04:03;;;;;;;16.85;8.02;;;;;;;;;;5059750;28;20043;-77
2023/02/22 13:06:35;;;;;;;15.73;8.57;;;;;;;;;;5039687;28;20033;-78
2023/02/22 13:09:01;;;;;;;16.67;8.40;;;;;;;;;;5057873;28;20040;-76
2023/02/22 13:11:46;;;;;;;11.98;7.03;;;;;;;;;;5042819;28;20044;-77
2023/02/22 13:14:24;;;;;;;11.23;7.15;;;;;;;;;;5041224;28;20317;-77
2023/02/22 13:16:53;;;;;;;14.05;8.00;;;;;;;;;;5045787;28;20032;-78
2023/02/22 13:19:25;;;;;;;16.13;8.35;;;;;;;;;;5040096;28;20036;-75
2023/02/22 13:22:20;;;;;;;13.43;7.60;;;;;;;;;;5041631;28;20028;-77
2023/02/22 13:25:07;;;;;;;16.92;7.10;;;;;;;;;;5039850;28;20039;-77
2023/02/22 13:27:42;;;;;;;10.82;7.53;;;;;;;;;;5034184;28;20760;-77
2023/02/22 13:30:20;;;;;;;15.05;7.90;;;;;;;;;;5055767;28;20043;-76
2023/02/22 13:32:54;;;;;;;13.15;7.05;;;;;;;;;;5056673;28;20140;-77
2023/02/22 13:35:43;;;;;;;12.20;7.53;;;;;;;;;;5039407;28;20029;-77
2023/02/22 13:38:36;;;;;;;14.50;6.50;;;;;;;;;;5057115;28;20621;-76
2023/02/22 13:41:15;;;;;;;10.07;5.70;;;;;;;;;;4958288;28;20142;-76
2023/02/22 13:43:43;;;;;;;16.83;8.82;;;;;;;;;;4963554;28;20027;-77
2023/02/22 13:46:21;;;;;;;12.70;6.10;;;;;;;;;;4946225;28;20166;-77
2023/02/22 13:48:53;;;;;;;16.13;7.78;;;;;;;;;;4959404;28;20039;-77
2023/02/22 13:51:31;;;;;;;10.73;7.28;;;;;;;;;;4961478;28;20047;-78
2023/02/22 13:54:02;;;;;;;14.00;6.00;;;;;;;;;;4951170;28;20031;-77
2023/02/22 13:56:29;;;;;;;14.68;6.22;;;;;;;;;;4944509;28;20027;-78
2023/02/22 13:59:00;;;;;;;13.20;6.88;;;;;;;;;;4960273;28;20038;-76
2023/02/22 14:01:51;;;;;;;10.15;5.85;;;;;;;;;;4961384;28;20173;-78
2023/02/22 14:04:20;;;;;;;14.95;6.72;;;;;;;;;;4959663;28;20082;-78
2023/02/22 14:06:46;;;;;;;18.13;6.82;;;;;;;;;;4945188;28;20038;-78
2023/02/22 14:09:21;;;;;;;12.45;7.68;;;;;;;;;;4946092;28;20341;-76
2023/02/22 14:11:50;;;;;;;15.23;7.35;;;;;;;;;;4945080;28;20043;-78
2023/02/22 14:14:17;;;;;;;11.80;7.22;;;;;;;;;;4947837;28;20035;-78
2023/02/22 14:16:44;;;;;;;15.48;7.03;;;;;;;;;;4962927;28;20033;-79
2023/02/22 14:19:12;;;;;;;11.93;6.50;;;;;;;;;;5058705;28;20025;-77
2023/02/22 14:21:54;;;;;;;12.52;6.88;;;;;;;;;;5056342;28;20048;-77
2023/02/22 14:24:20;;;;;;;11.20;7.07;;;;;;;;;;5040411;28;20052;-77
2023/02/22 14:26:54;;;;;;;12.48;6.97;;;;;;;;;;5056925;28;20063;-78
2023/02/22 14:29:20;;;;;;;10.23;6.43;;;;;;;;;;5040031;28;20083;-78